Time;durP1;ratioP1;P1;durP2;ratioP2;P2;SDS_P1;SDS_P2;PMS_P1;PMS_P2;Temp;Humidity;BMP_temperature;BMP_pressure;BME280_temperature;BME280_humidity;BME280_pressure;Samples;Min_cycle;Max_cycle;Signal;HPM_P1;HPM_P2
2022/07/01 00:01:41;;;;;;;7.70;4.62;;;;;;;19.47;77.66;99693.92;1773076;80;20976;-80
2022/07/01 00:04:08;;;;;;;7.70;5.25;;;;;;;19.46;77.93;99691.35;1762009;80;20996;-81
2022/07/01 00:06:35;;;;;;;6.53;5.17;;;;;;;19.43;77.87;99696.89;1760984;81;21111;-80
2022/07/01 00:09:02;;;;;;;6.53;5.25;;;;;;;19.41;77.81;99697.48;1760935;81;21079;-81
2022/07/01 00:11:29;;;;;;;12.00;5.50;;;;;;;19.40;77.82;99690.43;1760973;80;21083;-80
2022/07/01 00:13:56;;;;;;;7.75;5.92;;;;;;;19.38;77.86;99689.20;1761048;81;20996;-79
2022/07/01 00:16:22;;;;;;;8.63;5.47;;;;;;;19.36;77.94;99684.94;1761147;80;20981;-80
2022/07/01 00:18:49;;;;;;;7.72;5.30;;;;;;;19.34;77.75;99694.88;1761444;81;21079;-80
2022/07/01 00:21:16;;;;;;;10.38;5.30;;;;;;;19.33;77.69;99689.15;1761163;81;21797;-80
2022/07/01 00:23:42;;;;;;;6.00;5.40;;;;;;;19.33;77.53;99690.48;1760976;81;21430;-80
2022/07/01 00:26:08;;;;;;;10.88;5.42;;;;;;;19.28;77.43;99694.79;1761496;80;21092;-80
2022/07/01 00:28:35;;;;;;;5.78;5.28;;;;;;;19.24;77.54;99693.30;1745308;80;21050;-80
2022/07/01 00:31:02;;;;;;;8.80;5.33;;;;;;;19.21;77.62;99690.84;1732389;82;21015;-80
2022/07/01 00:33:29;;;;;;;6.10;5.55;;;;;;;19.19;77.67;99688.27;1732306;82;21062;-80
2022/07/01 00:35:55;;;;;;;6.53;5.87;;;;;;;19.18;77.77;99689.25;1732529;82;20971;-79
2022/07/01 00:38:22;;;;;;;11.50;6.50;;;;;;;19.13;77.87;99683.34;1732320;82;22098;-80
2022/07/01 00:40:53;;;;;;;8.75;6.72;;;;;;;19.12;77.80;99688.32;1732395;82;21052;-80
2022/07/01 00:43:23;;;;;;;8.63;6.20;;;;;;;19.09;77.75;99681.85;1732683;82;21059;-80
2022/07/01 00:45:49;;;;;;;10.60;7.12;;;;;;;19.06;77.77;99683.39;1732289;82;21898;-80
2022/07/01 00:48:16;;;;;;;7.37;6.50;;;;;;;19.05;77.79;99682.55;1732367;82;21094;-80
2022/07/01 00:50:43;;;;;;;10.43;6.92;;;;;;;19.03;77.90;99683.59;1732407;82;21070;-80
2022/07/01 00:53:09;;;;;;;8.83;6.40;;;;;;;18.99;77.96;99686.09;1732514;82;21039;-80
2022/07/01 00:55:36;;;;;;;12.10;7.70;;;;;;;18.96;77.85;99692.97;1732417;82;21043;-80
2022/07/01 00:58:02;;;;;;;9.68;7.05;;;;;;;18.96;78.03;99692.97;1732722;82;21073;-81
2022/07/01 01:00:29;;;;;;;7.33;6.17;;;;;;;18.94;78.44;99696.58;1732558;82;21011;-80
2022/07/01 01:02:55;;;;;;;9.85;6.25;;;;;;;18.92;78.49;99703.83;1741834;81;21574;-80
2022/07/01 01:05:22;;;;;;;8.35;6.78;;;;;;;18.88;78.44;99697.00;1750241;82;21055;-80
2022/07/01 01:07:50;;;;;;;10.50;7.20;;;;;;;18.86;78.74;99698.92;1750179;82;21101;-79
2022/07/01 01:10:17;;;;;;;9.88;7.78;;;;;;;18.86;78.93;99699.38;1750372;82;21341;-80
2022/07/01 01:12:44;;;;;;;12.25;7.42;;;;;;;18.83;79.21;99699.13;1750408;82;21043;-79
2022/07/01 01:15:12;;;;;;;14.73;9.90;;;;;;;18.80;79.09;99698.44;1750288;82;21008;-80
2022/07/01 01:17:39;;;;;;;13.83;10.45;;;;;;;18.77;79.04;99692.81;1717974;82;22021;-80
2022/07/01 01:20:06;;;;;;;19.57;9.83;;;;;;;18.80;79.33;99685.11;1750144;82;20980;-80
2022/07/01 01:22:33;;;;;;;14.63;8.33;;;;;;;18.82;79.57;99689.86;1750624;82;21788;-80
2022/07/01 01:24:59;;;;;;;11.88;8.50;;;;;;;18.79;79.57;99684.23;1750254;82;22302;-79
2022/07/01 01:27:26;;;;;;;13.18;7.72;;;;;;;18.78;79.50;99686.55;1750186;82;21003;-80
2022/07/01 01:29:52;;;;;;;9.90;7.30;;;;;;;18.77;79.26;99681.31;1750622;82;21074;-81
2022/07/01 01:32:19;;;;;;;10.65;6.62;;;;;;;18.76;79.07;99684.43;1750149;82;21039;-79
2022/07/01 01:34:45;;;;;;;12.73;8.98;;;;;;;18.74;78.98;99693.02;1750417;82;21762;-80
2022/07/01 01:37:12;;;;;;;14.53;8.98;;;;;;;18.72;79.25;99693.59;1753751;80;21040;-80
2022/07/01 01:39:38;;;;;;;12.58;7.92;;;;;;;18.70;79.66;99692.85;1750286;82;21064;-80
2022/07/01 01:42:07;;;;;;;8.83;6.58;;;;;;;18.69;79.71;99700.45;1749854;82;21055;-80
2022/07/01 01:44:35;;;;;;;10.00;7.22;;;;;;;18.68;79.58;99701.44;1749993;82;21106;-79
2022/07/01 01:47:02;;;;;;;10.63;7.92;;;;;;;18.66;79.46;99708.65;1750285;82;21775;-80
2022/07/01 01:49:28;;;;;;;8.93;7.00;;;;;;;18.61;79.71;99706.77;1726674;82;22032;-80
2022/07/01 01:51:57;;;;;;;11.08;6.87;;;;;;;18.58;79.81;99713.16;1749862;82;21047;-79
2022/07/01 01:54:24;;;;;;;10.50;6.40;;;;;;;18.59;79.79;99706.02;1750012;82;21016;-80
2022/07/01 01:56:51;;;;;;;10.50;6.55;;;;;;;18.55;79.82;99708.03;1749922;80;21075;-80
2022/07/01 01:59:18;;;;;;;7.53;6.72;;;;;;;18.54;79.87;99707.63;1749913;82;21141;-79
2022/07/01 02:01:44;;;;;;;10.75;7.50;;;;;;;18.53;80.00;99707.28;1749862;82;21091;-78
2022/07/01 02:04:11;;;;;;;8.88;7.40;;;;;;;18.54;80.11;99714.30;1748057;82;21110;-80
2022/07/01 02:06:40;;;;;;;12.03;7.95;;;;;;;18.55;80.10;99722.68;1747263;82;21115;-80
2022/07/01 02:09:06;;;;;;;16.77;8.68;;;;;;;18.54;80.07;99715.17;1761225;81;21507;-81
2022/07/01 02:11:33;;;;;;;11.95;10.10;;;;;;;18.51;80.11;99712.70;1739976;82;21161;-79
2022/07/01 02:13:59;;;;;;;15.48;11.57;;;;;;;18.50;79.97;99720.30;1740127;82;21055;-81
2022/07/01 02:16:25;;;;;;;11.28;10.05;;;;;;;18.52;80.65;99718.39;1740189;82;21087;-81
2022/07/01 02:18:52;;;;;;;10.88;9.28;;;;;;;18.54;80.92;99716.51;1739730;82;21063;-79
2022/07/01 02:21:19;;;;;;;12.55;9.98;;;;;;;18.56;81.02;99712.41;1740375;82;21600;-80
2022/07/01 02:23:46;;;;;;;14.10;8.68;;;;;;;18.55;81.18;99716.86;1739904;81;21300;-78
2022/07/01 02:26:12;;;;;;;14.63;9.23;;;;;;;18.57;81.26;99706.95;1740285;82;20957;-79
2022/07/01 02:28:39;;;;;;;9.65;8.65;;;;;;;18.61;81.38;99709.42;1739893;82;21125;-81
2022/07/01 02:31:05;;;;;;;11.53;8.25;;;;;;;18.62;81.40;99703.16;1740019;82;21099;-81
2022/07/01 02:33:32;;;;;;;10.50;7.87;;;;;;;18.64;81.34;99701.23;1740088;81;21071;-80
2022/07/01 02:35:58;;;;;;;8.80;7.80;;;;;;;18.66;81.31;99696.20;1741567;81;21136;-81
2022/07/01 02:38:25;;;;;;;9.60;8.00;;;;;;;18.70;81.37;99703.03;1758763;81;21001;-79
2022/07/01 02:40:51;;;;;;;9.70;7.28;;;;;;;18.73;81.44;99698.83;1759522;81;22207;-79
2022/07/01 02:43:18;;;;;;;9.78;7.47;;;;;;;18.77;81.22;99699.48;1759819;81;21048;-80
2022/07/01 02:45:45;;;;;;;9.38;7.62;;;;;;;18.82;81.47;99708.52;1759525;81;21040;-80
2022/07/01 02:48:11;;;;;;;13.05;8.15;;;;;;;18.85;81.67;99707.86;1759806;81;21162;-81
2022/07/01 02:50:38;;;;;;;11.33;8.33;;;;;;;18.90;81.79;99713.75;1759904;81;21060;-80
2022/07/01 02:53:04;;;;;;;11.97;8.45;;;;;;;18.91;81.95;99710.13;1759941;81;21098;-79
2022/07/01 02:55:31;;;;;;;10.10;7.83;;;;;;;18.92;82.16;99710.49;1759718;81;21586;-81
2022/07/01 02:57:57;;;;;;;14.38;8.35;;;;;;;18.96;82.06;99719.63;1760032;81;21911;-79
2022/07/01 03:00:24;;;;;;;13.68;9.38;;;;;;;19.00;82.05;99715.82;1759633;81;21198;-79
2022/07/01 03:02:51;;;;;;;13.08;8.85;;;;;;;19.03;82.40;99722.25;1760121;81;21059;-80
2022/07/01 03:05:17;;;;;;;16.60;9.20;;;;;;;19.04;82.47;99714.64;1745522;81;21096;-79
2022/07/01 03:07:44;;;;;;;15.08;9.05;;;;;;;19.08;82.26;99714.80;1746022;81;20996;-81
2022/07/01 03:10:11;;;;;;;16.42;8.90;;;;;;;19.15;82.13;99717.45;1745528;81;21111;-79
2022/07/01 03:12:39;;;;;;;14.60;8.98;;;;;;;19.21;82.22;99721.02;1745604;82;21184;-79
2022/07/01 03:15:12;;;;;;;16.77;9.48;;;;;;;19.27;82.50;99725.95;1745763;81;21102;-81
2022/07/01 03:17:40;;;;;;;16.07;10.53;;;;;;;19.31;82.52;99727.45;1745594;82;20977;-79
2022/07/01 03:20:09;;;;;;;16.95;12.28;;;;;;;19.37;81.98;99721.34;1745725;82;21099;-80
2022/07/01 03:22:36;;;;;;;18.00;11.35;;;;;;;19.45;82.29;99724.32;1745586;82;21016;-79
2022/07/01 03:25:03;;;;;;;19.30;11.53;;;;;;;19.50;81.70;99722.19;1745699;82;21749;-80
2022/07/01 03:27:30;;;;;;;17.23;13.03;;;;;;;19.56;81.08;99716.93;1745504;81;21002;-80
2022/07/01 03:29:57;;;;;;;18.65;10.78;;;;;;;19.62;81.36;99721.38;1745367;82;21119;-79
2022/07/01 03:32:23;;;;;;;19.27;11.68;;;;;;;19.68;80.95;99718.25;1745680;81;21153;-81
2022/07/01 03:34:51;;;;;;;16.52;12.03;;;;;;;19.74;80.67;99717.48;1745646;81;21063;-78
2022/07/01 03:37:18;;;;;;;16.70;11.78;;;;;;;19.81;81.08;99716.12;1745714;82;21095;-80
2022/07/01 03:39:44;;;;;;;17.27;12.05;;;;;;;19.85;81.74;99714.92;1747291;80;21061;-81
2022/07/01 03:42:11;;;;;;;17.92;11.22;;;;;;;19.92;82.32;99713.56;1745755;82;21104;-80
2022/07/01 03:44:38;;;;;;;19.07;11.55;;;;;;;20.00;82.76;99713.84;1745564;81;21002;-81
2022/07/01 03:47:07;;;;;;;10.58;9.43;;;;;;;20.09;82.75;99722.17;1745569;82;21076;-79
2022/07/01 03:49:34;;;;;;;10.68;8.50;;;;;;;20.17;82.45;99723.82;1745838;81;21105;-79
2022/07/01 03:52:03;;;;;;;10.23;8.00;;;;;;;20.27;81.95;99726.70;1745494;81;21076;-80
2022/07/01 03:54:29;;;;;;;13.53;8.18;;;;;;;20.37;81.65;99731.25;1714725;83;21056;-79
2022/07/01 03:57:04;;;;;;;13.32;7.30;;;;;;;20.49;81.25;99738.02;1745496;82;21010;-81
2022/07/01 03:59:35;;;;;;;10.60;8.05;;;;;;;20.57;81.22;99735.16;1745690;81;21057;-79
2022/07/01 04:02:03;;;;;;;11.00;7.97;;;;;;;20.65;81.31;99733.31;1745641;82;21206;-81
2022/07/01 04:04:29;;;;;;;9.78;7.72;;;;;;;20.72;81.53;99733.22;1750033;81;21032;-79
2022/07/01 04:06:59;;;;;;;10.70;7.00;;;;;;;20.78;81.81;99736.79;1814423;79;21023;-80
2022/07/01 04:09:27;;;;;;;12.80;6.65;;;;;;;20.83;81.87;99739.13;1814446;79;21050;-81
2022/07/01 04:11:53;;;;;;;11.15;6.05;;;;;;;20.88;81.78;99740.11;1814461;79;21477;-79
2022/07/01 04:14:20;;;;;;;8.60;6.15;;;;;;;20.90;81.23;99738.20;1814508;79;21140;-80
2022/07/01 04:16:47;;;;;;;9.23;6.20;;;;;;;20.95;80.63;99739.55;1814458;79;20964;-79
2022/07/01 04:19:14;;;;;;;20.57;6.20;;;;;;;21.00;79.85;99744.56;1814199;79;21078;-79
2022/07/01 04:24:28;;;;;;;12.50;6.17;;;;;;;21.11;79.06;99746.42;1814582;79;21061;-79
2022/07/01 04:26:54;;;;;;;9.28;6.72;;;;;;;21.14;78.76;99749.72;1814508;79;21182;-79
2022/07/01 04:29:21;;;;;;;6.00;5.50;;;;;;;21.18;78.40;99740.98;1814545;79;21066;-79
2022/07/01 04:31:48;;;;;;;7.45;5.87;;;;;;;21.21;77.72;99743.42;1814475;79;21585;-80
2022/07/01 04:34:14;;;;;;;9.73;6.37;;;;;;;21.24;77.26;99748.55;1814199;79;21490;-79
2022/07/01 04:36:41;;;;;;;7.95;5.20;;;;;;;21.27;76.91;99743.47;1814894;79;21113;-79
2022/07/01 04:39:08;;;;;;;8.25;5.47;;;;;;;21.32;76.93;99746.65;1814388;79;22396;-79
2022/07/01 04:44:19;;;;;;;6.53;5.83;;;;;;;21.48;77.20;99743.18;1745928;80;21581;-79
2022/07/01 04:46:45;;;;;;;7.80;5.72;;;;;;;21.56;76.77;99737.75;1756674;81;21610;-80
2022/07/01 04:49:12;;;;;;;9.30;5.58;;;;;;;21.62;76.93;99742.61;1814075;79;21537;-79
2022/07/01 04:51:38;;;;;;;7.22;5.28;;;;;;;21.70;76.83;99746.89;1814451;79;21129;-80
2022/07/01 04:54:10;;;;;;;8.53;5.20;;;;;;;21.80;75.84;99745.20;1814667;79;21042;-80
2022/07/01 04:56:36;;;;;;;15.08;5.53;;;;;;;21.93;74.30;99742.92;1813795;79;21011;-79
2022/07/01 04:59:03;;;;;;;18.40;5.55;;;;;;;22.06;73.25;99740.98;1814769;79;20987;-79
2022/07/01 05:01:29;;;;;;;8.98;4.78;;;;;;;22.21;72.58;99742.44;1814551;79;20967;-79
2022/07/01 05:03:56;;;;;;;10.90;5.60;;;;;;;22.33;72.15;99746.00;1813062;78;21173;-80
2022/07/01 05:06:23;;;;;;;8.18;4.97;;;;;;;22.45;72.36;99742.82;1805203;79;21015;-80
2022/07/01 05:08:49;;;;;;;7.53;5.12;;;;;;;22.57;72.01;99748.52;1805283;78;20988;-79
2022/07/01 05:11:16;;;;;;;8.73;4.78;;;;;;;22.68;71.16;99749.47;1805328;78;21090;-80
2022/07/01 05:13:44;;;;;;;6.37;4.30;;;;;;;22.78;70.81;99751.80;1805432;78;21012;-79
2022/07/01 05:16:11;;;;;;;7.95;4.78;;;;;;;22.85;69.24;99754.33;1805214;79;21091;-80
2022/07/01 05:24:07;;;;;;;10.35;4.65;;;;;;;22.96;68.00;99752.09;1805965;78;21047;-78
2022/07/01 05:26:34;;;;;;;5.90;4.28;;;;;;;23.03;67.39;99745.23;1805177;79;21085;-79
2022/07/01 05:29:00;;;;;;;10.25;4.28;;;;;;;23.10;66.21;99753.66;1805608;79;21600;-80
2022/07/01 05:31:27;;;;;;;12.90;3.83;;;;;;;23.11;65.35;99745.98;1805210;79;20988;-79
2022/07/01 05:33:54;;;;;;;9.70;4.37;;;;;;;23.12;65.09;99746.36;1805626;79;21549;-79
2022/07/01 05:36:21;;;;;;;7.15;4.40;;;;;;;23.13;66.30;99748.91;1805293;79;21617;-79
2022/07/01 05:38:47;;;;;;;10.30;4.70;;;;;;;23.16;65.50;99754.50;1805308;78;21570;-79
2022/07/01 05:41:13;;;;;;;7.00;4.60;;;;;;;23.18;66.24;99756.09;1805455;79;21234;-80
2022/07/01 05:43:40;;;;;;;5.37;4.40;;;;;;;23.24;65.25;99752.03;1805293;78;21054;-80
2022/07/01 05:46:06;;;;;;;8.98;4.87;;;;;;;23.29;65.44;99751.15;1808610;77;21075;-79
2022/07/01 05:48:32;;;;;;;6.45;4.80;;;;;;;23.34;64.87;99740.88;1808706;79;20976;-79
2022/07/01 05:50:59;;;;;;;7.15;4.50;;;;;;;23.41;65.15;99738.52;1808811;79;20976;-78
2022/07/01 05:53:25;;;;;;;10.03;4.10;;;;;;;23.50;64.59;99739.09;1808876;79;21113;-79
2022/07/01 05:55:52;;;;;;;7.53;4.78;;;;;;;23.59;64.74;99740.14;1808873;79;21086;-79
2022/07/01 05:58:18;;;;;;;10.95;4.28;;;;;;;23.66;64.36;99735.94;1808699;79;21819;-79
2022/07/01 06:00:45;;;;;;;13.35;4.92;;;;;;;23.77;64.18;99744.91;1809012;79;22366;-80
2022/07/01 06:03:14;;;;;;;6.78;4.22;;;;;;;23.84;63.90;99738.91;1808847;79;21588;-79
2022/07/01 06:05:41;;;;;;;7.58;4.67;;;;;;;23.90;64.02;99740.20;1808539;78;20988;-80
2022/07/01 06:08:08;;;;;;;5.85;3.80;;;;;;;23.99;64.02;99736.73;1808579;79;21028;-79
2022/07/01 06:10:35;;;;;;;4.75;3.67;;;;;;;24.06;64.52;99740.58;1808835;79;21083;-79
2022/07/01 06:13:02;;;;;;;11.78;3.67;;;;;;;24.18;64.03;99737.80;1808848;79;21054;-81
2022/07/01 06:15:29;;;;;;;7.50;3.42;;;;;;;24.30;64.03;99731.33;1808801;79;21122;-80
2022/07/01 06:17:56;;;;;;;4.85;3.33;;;;;;;24.41;63.74;99736.61;1808567;79;21578;-79
2022/07/01 06:20:22;;;;;;;6.35;3.72;;;;;;;24.52;62.85;99732.95;1808557;79;20989;-79
2022/07/01 06:22:49;;;;;;;6.58;3.72;;;;;;;24.63;62.28;99740.11;1808541;79;21062;-80
2022/07/01 06:25:16;;;;;;;6.65;4.03;;;;;;;24.75;62.42;99733.61;1808578;79;21557;-79
2022/07/01 06:27:43;;;;;;;6.62;3.58;;;;;;;24.87;62.28;99726.27;1808845;79;21453;-80
2022/07/01 06:30:12;;;;;;;5.60;3.10;;;;;;;24.96;59.75;99729.95;1808874;79;21131;-80
2022/07/01 06:32:39;;;;;;;5.58;3.45;;;;;;;24.98;59.68;99725.27;1808685;79;21475;-80
2022/07/01 06:35:07;;;;;;;3.87;3.00;;;;;;;24.99;59.79;99728.33;1808946;79;21546;-81
2022/07/01 06:37:35;;;;;;;4.40;3.40;;;;;;;25.06;60.32;99725.41;1808752;79;21035;-79
2022/07/01 06:40:05;;;;;;;4.60;3.40;;;;;;;25.15;60.39;99723.23;1808771;79;20932;-79
2022/07/01 06:42:32;;;;;;;3.72;3.40;;;;;;;25.25;59.70;99714.28;1808666;78;21079;-80
2022/07/01 06:44:59;;;;;;;3.20;2.90;;;;;;;25.36;61.14;99716.36;1808568;79;20980;-80
2022/07/01 06:47:26;;;;;;;8.85;2.83;;;;;;;25.48;60.21;99714.36;1809459;78;21022;-79
2022/07/01 06:49:54;;;;;;;5.62;3.40;;;;;;;25.55;57.74;99713.28;1805285;79;21011;-80
2022/07/01 06:52:20;;;;;;;5.85;3.40;;;;;;;25.59;55.89;99715.55;1805469;78;21039;-80
2022/07/01 06:54:46;;;;;;;5.95;3.20;;;;;;;25.64;54.91;99718.30;1805775;79;21128;-79
2022/07/01 06:57:13;;;;;;;4.72;3.35;;;;;;;25.70;56.73;99723.12;1805052;79;21082;-79
2022/07/01 06:59:39;;;;;;;3.00;2.80;;;;;;;25.77;55.08;99714.79;1806128;79;21636;-80
2022/07/01 07:02:07;;;;;;;4.25;3.20;;;;;;;25.84;55.59;99718.63;1805261;79;21550;-80
2022/07/01 07:04:34;;;;;;;5.67;3.20;;;;;;;25.91;54.64;99711.64;1803195;79;20972;-79
2022/07/01 07:07:02;;;;;;;3.42;3.12;;;;;;;25.94;53.26;99716.74;1787129;80;21133;-80
2022/07/01 07:09:29;;;;;;;5.20;3.40;;;;;;;25.93;54.64;99712.34;1787191;80;20997;-80
2022/07/01 07:11:56;;;;;;;4.55;3.58;;;;;;;25.95;55.27;99714.92;1787105;80;21503;-80
2022/07/01 07:14:22;;;;;;;6.37;4.12;;;;;;;25.99;55.66;99714.13;1787425;80;21511;-80
2022/07/01 07:16:51;;;;;;;8.05;4.90;;;;;;;26.07;56.27;99711.03;1787180;80;21032;-79
2022/07/01 07:19:17;;;;;;;4.72;4.10;;;;;;;26.15;56.18;99707.60;1787244;80;21539;-81
2022/07/01 07:21:44;;;;;;;6.58;4.80;;;;;;;26.25;55.47;99717.00;1787155;80;21049;-79
2022/07/01 07:24:10;;;;;;;8.28;5.20;;;;;;;26.32;55.63;99713.54;1787105;80;20953;-79
2022/07/01 07:26:36;;;;;;;5.53;4.67;;;;;;;26.45;56.87;99713.71;1787564;80;21130;-80
2022/07/01 07:29:03;;;;;;;6.67;5.10;;;;;;;26.59;56.00;99714.53;1787068;80;21527;-79
2022/07/01 07:31:30;;;;;;;8.55;5.12;;;;;;;26.68;55.84;99705.57;1787167;80;21485;-80
2022/07/01 07:33:56;;;;;;;7.65;4.03;;;;;;;26.79;56.02;99707.19;1787117;80;21004;-78
2022/07/01 07:36:22;;;;;;;5.55;4.17;;;;;;;26.83;53.87;99700.97;1790833;78;20986;-79
2022/07/01 07:38:49;;;;;;;7.37;4.15;;;;;;;26.82;53.48;99698.78;1787416;80;21045;-80
2022/07/01 07:41:16;;;;;;;5.35;4.65;;;;;;;26.80;54.07;99706.70;1787254;80;21010;-79
2022/07/01 07:43:42;;;;;;;6.30;4.90;;;;;;;26.84;52.26;99702.69;1786717;79;21104;-79
2022/07/01 07:46:09;;;;;;;5.00;4.03;;;;;;;26.83;51.96;99696.45;1787132;79;21085;-80
2022/07/01 07:48:36;;;;;;;9.45;4.78;;;;;;;26.86;53.30;99697.50;1787153;80;21057;-78
2022/07/01 07:51:03;;;;;;;5.83;3.98;;;;;;;26.98;53.95;99691.84;1787161;80;21006;-78
2022/07/01 07:53:29;;;;;;;3.85;3.45;;;;;;;27.08;53.86;99691.77;1787160;80;21115;-80
2022/07/01 07:55:56;;;;;;;11.18;4.03;;;;;;;27.20;52.47;99687.81;1787170;80;21118;-78
2022/07/01 07:58:22;;;;;;;4.42;3.87;;;;;;;27.22;51.39;99684.47;1787247;80;21097;-79
2022/07/01 08:00:49;;;;;;;10.25;3.52;;;;;;;27.18;50.71;99678.51;1787148;80;22050;-79
2022/07/01 08:03:16;;;;;;;7.60;3.60;;;;;;;27.17;51.52;99674.64;1786924;80;21516;-78
2022/07/01 08:05:42;;;;;;;3.55;3.25;;;;;;;27.24;52.49;99676.54;1795851;79;21618;-80
2022/07/01 08:08:09;;;;;;;5.00;3.42;;;;;;;27.36;52.39;99674.47;1805290;79;21133;-80
2022/07/01 08:10:35;;;;;;;5.20;3.22;;;;;;;27.46;52.05;99684.34;1805639;79;21017;-78
2022/07/01 08:13:04;;;;;;;3.85;3.35;;;;;;;27.51;52.94;99678.80;1805475;79;21053;-79
2022/07/01 08:15:31;;;;;;;5.10;3.50;;;;;;;27.56;52.75;99686.44;1805498;79;21711;-79
2022/07/01 08:17:57;;;;;;;4.10;3.05;;;;;;;27.61;52.62;99680.89;1805418;79;21492;-80
2022/07/01 08:20:23;;;;;;;4.28;3.15;;;;;;;27.66;52.71;99680.42;1805377;79;21103;-80
2022/07/01 08:22:50;;;;;;;4.40;3.20;;;;;;;27.71;51.59;99688.89;1805337;79;21582;-79
2022/07/01 08:25:18;;;;;;;5.15;3.75;;;;;;;27.65;50.96;99686.82;1805221;79;21064;-80
2022/07/01 08:27:44;;;;;;;3.85;3.55;;;;;;;27.59;51.52;99686.13;1805609;79;21977;-79
2022/07/01 08:30:11;;;;;;;3.87;3.47;;;;;;;27.53;51.98;99686.75;1805389;79;21559;-80
2022/07/01 08:32:38;;;;;;;3.95;3.60;;;;;;;27.56;52.10;99679.68;1805455;79;21202;-79
2022/07/01 08:35:05;;;;;;;10.68;4.35;;;;;;;27.69;53.17;99685.99;1805158;79;21872;-79
2022/07/01 08:37:31;;;;;;;4.58;4.17;;;;;;;27.85;53.60;99683.91;1805246;79;21061;-80
2022/07/01 08:39:59;;;;;;;4.25;3.67;;;;;;;28.03;53.72;99684.70;1811797;77;21083;-79
2022/07/01 08:42:26;;;;;;;7.62;3.40;;;;;;;28.20;53.50;99680.21;1769878;80;22144;-78
2022/07/01 08:44:52;;;;;;;5.22;3.42;;;;;;;28.36;53.87;99678.05;1801260;79;21459;-78
2022/07/01 08:47:19;;;;;;;4.50;3.42;;;;;;;28.46;51.95;99680.14;1769506;81;21003;-79
2022/07/01 08:49:45;;;;;;;5.90;3.30;;;;;;;28.47;50.58;99684.52;1800997;79;21056;-78
2022/07/01 08:52:12;;;;;;;4.58;3.15;;;;;;;28.47;51.94;99682.33;1745623;81;21161;-79
2022/07/01 08:54:39;;;;;;;6.92;3.47;;;;;;;28.50;50.49;99676.08;1801162;79;20968;-79
2022/07/01 08:57:06;;;;;;;5.12;3.27;;;;;;;28.54;51.39;99682.01;1769775;81;21493;-80
2022/07/01 08:59:33;;;;;;;6.75;2.80;;;;;;;28.61;50.05;99679.00;1801261;79;21040;-80
2022/07/01 09:02:03;;;;;;;3.45;3.10;;;;;;;28.72;49.63;99671.09;1769480;81;21082;-79
2022/07/01 09:04:30;;;;;;;5.40;2.62;;;;;;;28.81;48.64;99676.84;1801289;79;21150;-79
2022/07/01 09:07:09;;;;;;;3.83;3.12;;;;;;;28.90;48.61;99675.85;1758592;80;21110;-79
2022/07/01 09:09:38;;;;;;;3.25;2.65;;;;;;;29.01;48.45;99677.88;1747158;80;21103;-80
2022/07/01 09:12:05;;;;;;;4.33;3.22;;;;;;;29.10;47.47;99671.44;1745339;82;20989;-79
2022/07/01 09:14:33;;;;;;;3.50;3.17;;;;;;;29.15;47.14;99674.52;1745834;82;21087;-80
2022/07/01 09:17:03;;;;;;;4.75;3.20;;;;;;;29.17;46.20;99665.73;1745598;81;21574;-79
2022/07/01 09:19:33;;;;;;;10.08;2.83;;;;;;;29.14;45.39;99664.68;1745459;82;21095;-80
2022/07/01 09:22:01;;;;;;;3.95;2.50;;;;;;;29.13;46.06;99668.39;1745078;82;21138;-79
2022/07/01 09:24:37;;;;;;;3.55;2.58;;;;;;;29.18;46.54;99672.83;1745463;81;21005;-79
2022/07/01 09:27:10;;;;;;;2.45;2.33;;;;;;;29.24;46.13;99665.38;1745850;82;21016;-79
2022/07/01 09:29:42;;;;;;;2.77;2.57;;;;;;;29.32;45.34;99671.80;1745881;81;21111;-80
2022/07/01 09:32:12;;;;;;;2.40;2.20;;;;;;;29.38;45.54;99671.97;1742962;82;21035;-78
2022/07/01 09:34:48;;;;;;;3.10;2.40;;;;;;;29.42;43.49;99662.49;1739622;81;21552;-79
2022/07/01 09:37:17;;;;;;;8.48;2.50;;;;;;;29.48;45.35;99663.66;1715657;81;21576;-79
2022/07/01 09:39:47;;;;;;;4.20;2.40;;;;;;;29.56;43.83;99671.78;1715211;81;21005;-79
2022/07/01 09:42:15;;;;;;;4.20;2.65;;;;;;;29.60;43.39;99673.11;1715909;81;21014;-79
2022/07/01 09:45:10;;;;;;;3.60;2.55;;;;;;;29.63;43.81;99666.52;1715899;83;21556;-80
2022/07/01 09:47:38;;;;;;;2.72;2.62;;;;;;;29.74;43.60;99670.71;1715827;83;21131;-78
2022/07/01 09:50:06;;;;;;;5.03;2.45;;;;;;;29.84;42.55;99660.54;1691790;83;21096;-79
2022/07/01 09:52:33;;;;;;;3.15;2.60;;;;;;;29.89;43.34;99659.53;1715696;83;21453;-80
2022/07/01 09:55:00;;;;;;;4.20;2.80;;;;;;;29.94;44.08;99658.50;1715964;81;21045;-79
2022/07/01 09:57:27;;;;;;;3.22;2.50;;;;;;;29.90;43.87;99657.14;1715858;83;21080;-79
2022/07/01 09:59:54;;;;;;;6.42;3.00;;;;;;;29.90;43.52;99658.50;1715840;81;21084;-78
2022/07/01 10:02:21;;;;;;;2.92;2.67;;;;;;;29.90;42.03;99661.20;1715779;83;21132;-79
2022/07/01 10:04:53;;;;;;;2.75;2.52;;;;;;;29.85;42.91;99656.82;1716185;83;21076;-79
2022/07/01 10:07:54;;;;;;;3.60;2.72;;;;;;;29.88;43.77;99655.12;1742190;81;21064;-80
2022/07/01 10:10:53;;;;;;;3.10;2.50;;;;;;;29.98;43.03;99661.19;1745194;80;21629;-79
2022/07/01 10:13:25;;;;;;;2.85;2.17;;;;;;;30.12;42.82;99654.69;1742023;82;21241;-80
2022/07/01 10:15:59;;;;;;;6.90;1.82;;;;;;;30.22;41.05;99651.24;1745288;81;21032;-79
2022/07/01 10:18:27;;;;;;;2.12;1.90;;;;;;;30.27;39.52;99651.55;1745421;81;21039;-79
2022/07/01 10:20:54;;;;;;;1.85;1.50;;;;;;;30.34;38.21;99656.59;1745755;81;20992;-79
2022/07/01 10:23:24;;;;;;;1.70;1.60;;;;;;;30.38;36.88;99647.12;1745514;82;22099;-79
2022/07/01 10:25:51;;;;;;;2.00;1.80;;;;;;;30.48;35.98;99652.82;1745239;81;21236;-78
2022/07/01 10:28:32;;;;;;;3.98;1.80;;;;;;;30.52;37.29;99648.74;1745383;82;20981;-78
2022/07/01 10:31:08;;;;;;;2.20;1.60;;;;;;;30.60;38.06;99649.18;1762234;79;20973;-80
2022/07/01 10:33:50;;;;;;;3.80;1.50;;;;;;;30.72;37.36;99651.83;1769297;81;21519;-79
2022/07/01 10:36:33;;;;;;;2.80;1.70;;;;;;;30.81;36.65;99646.66;1760741;80;21558;-79
2022/07/01 10:39:17;;;;;;;1.98;1.40;;;;;;;30.89;37.16;99644.41;1760749;81;21533;-79
2022/07/01 10:42:00;;;;;;;3.77;1.50;;;;;;;30.95;35.68;99646.44;1761035;81;21119;-79
2022/07/01 10:44:27;;;;;;;1.57;1.37;;;;;;;30.99;36.12;99638.23;1760559;80;21036;-79
2022/07/01 10:46:58;;;;;;;1.72;1.60;;;;;;;31.02;35.97;99631.58;1760904;81;21690;-85
2022/07/01 10:49:42;;;;;;;3.85;1.85;;;;;;;31.01;36.10;99628.02;1760908;81;21048;-79
2022/07/01 10:52:12;;;;;;;12.98;2.33;;;;;;;31.00;35.73;99631.79;1761207;81;21577;-78
2022/07/01 10:54:48;;;;;;;2.55;2.00;;;;;;;30.99;35.24;99623.30;1760846;81;21131;-77
2022/07/01 10:57:22;;;;;;;1.65;1.52;;;;;;;30.97;34.84;99625.84;1760811;81;21039;-75
2022/07/01 10:59:55;;;;;;;2.35;1.70;;;;;;;30.95;34.90;99619.27;1761018;81;21323;-78
2022/07/01 11:02:32;;;;;;;1.77;1.47;;;;;;;31.00;34.69;99623.64;1729449;80;20985;-79
2022/07/01 11:05:12;;;;;;;2.35;1.37;;;;;;;30.97;34.39;99626.72;1760819;80;21539;-78
2022/07/01 11:07:42;;;;;;;1.50;1.40;;;;;;;30.91;35.33;99620.61;1746518;80;20992;-78
2022/07/01 11:10:13;;;;;;;2.92;1.90;;;;;;;30.95;35.74;99623.34;1839575;78;21062;-77
2022/07/01 11:12:40;;;;;;;2.60;1.70;;;;;;;30.98;36.11;99620.23;1839595;78;21137;-78
2022/07/01 11:15:10;;;;;;;2.70;1.40;;;;;;;30.99;36.46;99629.25;1839416;78;20972;-78
2022/07/01 11:17:43;;;;;;;5.65;1.70;;;;;;;31.00;36.50;99631.79;1839843;78;21143;-78
2022/07/01 11:20:10;;;;;;;7.55;1.77;;;;;;;31.04;36.77;99619.52;1747462;82;21044;-78
2022/07/01 11:22:37;;;;;;;3.37;1.57;;;;;;;31.10;35.95;99617.92;1839634;78;21039;-79
2022/07/01 11:25:10;;;;;;;3.08;1.30;;;;;;;31.14;34.56;99612.98;1839498;78;20985;-79
2022/07/01 11:27:37;;;;;;;1.65;1.37;;;;;;;31.14;33.50;99612.98;1747641;81;21040;-79
2022/07/01 11:30:12;;;;;;;2.08;1.80;;;;;;;31.16;33.91;99611.77;1814156;78;21123;-78
2022/07/01 11:32:49;;;;;;;3.98;1.40;;;;;;;31.22;33.89;99607.45;1800674;79;21615;-78
2022/07/01 11:41:08;;;;;;;3.90;1.80;;;;;;;31.20;33.90;99616.31;1800971;79;21018;-77
2022/07/01 11:43:39;;;;;;;4.12;1.67;;;;;;;31.19;33.90;99615.47;1801112;79;21678;-79
2022/07/01 11:46:07;;;;;;;1.65;1.20;;;;;;;31.24;34.43;99613.56;1800954;79;21108;-79
2022/07/01 11:48:43;;;;;;;3.92;1.62;;;;;;;31.34;34.80;99607.34;1800912;79;21567;-79
2022/07/01 11:51:14;;;;;;;2.83;1.40;;;;;;;31.40;33.95;99612.02;1800844;79;21061;-79